Time;durP1;ratioP1;P1;durP2;ratioP2;P2;SDS_P1;SDS_P2;PMS_P1;PMS_P2;Temp;Humidity;BMP_temperature;BMP_pressure;BME280_temperature;BME280_humidity;BME280_pressure;Samples;Min_cycle;Max_cycle;Signal;HPM_P1;HPM_P2
2024/03/23 00:01:48;;;;;;;;;;;;;;;;;;5045842;28;19916;-73
2024/03/23 00:04:14;;;;;;;;;;;;;;;;;;5043745;28;19920;-71
2024/03/23 00:06:39;;;;;;;;;;;;;;;;;;5045047;28;19917;-70
2024/03/23 00:09:04;;;;;;;;;;;;;;;;;;5042082;28;19912;-72
2024/03/23 00:11:29;;;;;;;;;;;;;;;;;;5048642;28;19913;-72
2024/03/23 00:13:54;;;;;;;;;;;;;;;;;;5041971;28;19917;-72
2024/03/23 00:16:21;;;;;;;;;;;;;;;;;;5041689;28;19917;-72
2024/03/23 00:18:46;;;;;;;;;;;;;;;;;;5035173;28;19917;-74
2024/03/23 00:21:11;;;;;;;;;;;;;;;;;;5038551;28;19916;-71
2024/03/23 00:23:36;;;;;;;;;;;;;;;;;;5037668;28;19913;-71
2024/03/23 00:26:02;;;;;;;;;;;;;;;;;;5052157;28;19915;-71
2024/03/23 00:28:27;;;;;;;;;;;;;;;;;;5051393;28;19917;-72
2024/03/23 00:30:52;;;;;;;;;;;;;;;;;;5052702;28;19915;-72
2024/03/23 00:33:18;;;;;;;;;;;;;;;;;;5052199;28;20415;-72
2024/03/23 00:35:44;;;;;;;;;;;;;;;;;;5052185;28;19909;-72
2024/03/23 00:38:09;;;;;;;;;;;;;;;;;;5052130;28;20018;-72
2024/03/23 00:40:34;;;;;;;;;;;;;;;;;;5049503;28;19968;-72
2024/03/23 00:42:59;;;;;;;;;;;;;;;;;;5037297;28;19908;-71
2024/03/23 00:45:24;;;;;;;;;;;;;;;;;;5042555;28;20358;-71
2024/03/23 00:47:50;;;;;;;;;;;;;;;;;;5032038;28;19982;-72
2024/03/23 00:50:15;;;;;;;;;;;;;;;;;;5037677;28;19936;-72
2024/03/23 00:52:40;;;;;;;;;;;;;;;;;;5031993;28;19931;-71
2024/03/23 00:55:05;;;;;;;;;;;;;;;;;;5034075;28;20011;-71
2024/03/23 00:57:30;;;;;;;;;;;;;;;;;;5051727;28;19908;-72
2024/03/23 00:59:55;;;;;;;;;;;;;;;;;;5052176;28;20394;-72
2024/03/23 01:02:21;;;;;;;;;;;;;;;;;;5052163;28;19908;-70
2024/03/23 01:04:46;;;;;;;;;;;;;;;;;;5051679;28;19917;-72
2024/03/23 01:07:11;;;;;;;;;;;;;;;;;;5052038;28;19960;-72
2024/03/23 01:09:38;;;;;;;;;;;;;;;;;;5051830;28;20373;-72
2024/03/23 01:12:03;;;;;;;;;;;;;;;;;;5041552;28;19913;-78
2024/03/23 01:14:28;;;;;;;;;;;;;;;;;;5038739;28;20275;-77
2024/03/23 01:16:54;;;;;;;;;;;;;;;;;;5051519;28;20631;-77
2024/03/23 01:19:19;;;;;;;;;;;;;;;;;;5050016;28;19963;-79
2024/03/23 01:21:44;;;;;;;;;;;;;;;;;;5046960;28;19963;-79
2024/03/23 01:24:10;;;;;;;;;;;;;;;;;;5030772;28;19936;-78
2024/03/23 01:26:37;;;;;;;;;;;;;;;;;;5034232;28;19941;-78
2024/03/23 01:29:02;;;;;;;;;;;;;;;;;;5031668;28;20401;-78
2024/03/23 01:31:27;;;;;;;;;;;;;;;;;;5035540;28;19940;-77
2024/03/23 01:33:52;;;;;;;;;;;;;;;;;;5051173;28;20020;-78
2024/03/23 01:36:18;;;;;;;;;;;;;;;;;;5033528;28;19919;-79
2024/03/23 01:38:43;;;;;;;;;;;;;;;;;;5051789;28;19959;-78
2024/03/23 01:41:08;;;;;;;;;;;;;;;;;;5044003;28;19913;-78
2024/03/23 01:43:33;;;;;;;;;;;;;;;;;;5041551;28;20008;-78
2024/03/23 01:45:58;;;;;;;;;;;;;;;;;;5051556;28;20314;-78
2024/03/23 01:48:24;;;;;;;;;;;;;;;;;;5050334;28;20031;-76
2024/03/23 01:50:49;;;;;;;;;;;;;;;;;;5051200;28;20335;-75
2024/03/23 01:53:17;;;;;;;;;;;;;;;;;;5051244;28;19915;-75
2024/03/23 01:55:42;;;;;;;;;;;;;;;;;;5051625;28;19939;-76
2024/03/23 01:58:07;;;;;;;;;;;;;;;;;;5051458;28;19963;-76
2024/03/23 02:00:32;;;;;;;;;;;;;;;;;;5051000;28;19938;-76
2024/03/23 02:02:57;;;;;;;;;;;;;;;;;;5050948;28;20387;-76
2024/03/23 02:05:22;;;;;;;;;;;;;;;;;;5050999;28;20361;-77
2024/03/23 02:07:48;;;;;;;;;;;;;;;;;;5051347;28;19959;-77
2024/03/23 02:10:13;;;;;;;;;;;;;;;;;;5051422;28;19999;-77
2024/03/23 02:12:38;;;;;;;;;;;;;;;;;;5051003;28;19908;-77
2024/03/23 02:15:03;;;;;;;;;;;;;;;;;;5051106;28;19921;-76
2024/03/23 02:17:28;;;;;;;;;;;;;;;;;;5049847;28;19944;-77
2024/03/23 02:19:53;;;;;;;;;;;;;;;;;;5050789;28;19909;-78
2024/03/23 02:22:19;;;;;;;;;;;;;;;;;;5045103;28;19909;-74
2024/03/23 02:24:44;;;;;;;;;;;;;;;;;;5051017;28;20032;-74
2024/03/23 02:27:09;;;;;;;;;;;;;;;;;;5049235;28;20293;-74
2024/03/23 02:29:34;;;;;;;;;;;;;;;;;;5050030;28;20021;-74
2024/03/23 02:31:59;;;;;;;;;;;;;;;;;;5050374;28;19923;-74
2024/03/23 02:34:24;;;;;;;;;;;;;;;;;;5052417;28;19916;-74
2024/03/23 02:36:49;;;;;;;;;;;;;;;;;;5054484;28;19910;-74
2024/03/23 02:39:14;;;;;;;;;;;;;;;;;;5054465;28;19909;-74
2024/03/23 02:41:40;;;;;;;;;;;;;;;;;;5042780;28;19910;-74
2024/03/23 02:44:05;;;;;;;;;;;;;;;;;;5048579;28;19921;-74
2024/03/23 02:46:30;;;;;;;;;;;;;;;;;;5054605;28;20281;-74
2024/03/23 02:48:56;;;;;;;;;;;;;;;;;;5044543;28;19927;-75
2024/03/23 02:51:21;;;;;;;;;;;;;;;;;;5036482;28;19913;-75
2024/03/23 02:53:46;;;;;;;;;;;;;;;;;;5034468;28;19940;-74
2024/03/23 02:56:15;;;;;;;;;;;;;;;;;;5053566;28;19954;-74
2024/03/23 02:58:40;;;;;;;;;;;;;;;;;;5053950;28;20356;-74
2024/03/23 03:01:06;;;;;;;;;;;;;;;;;;5045988;28;20557;-74
2024/03/23 03:03:31;;;;;;;;;;;;;;;;;;5034204;28;20659;-74
2024/03/23 03:05:56;;;;;;;;;;;;;;;;;;5034175;28;20296;-74
2024/03/23 03:08:21;;;;;;;;;;;;;;;;;;5050356;28;20357;-74
2024/03/23 03:10:46;;;;;;;;;;;;;;;;;;5039740;28;19913;-74
2024/03/23 03:13:11;;;;;;;;;;;;;;;;;;5036056;28;19909;-74
2024/03/23 03:15:37;;;;;;;;;;;;;;;;;;5053651;28;19966;-74
2024/03/23 03:18:02;;;;;;;;;;;;;;;;;;5053974;28;19913;-74
2024/03/23 03:20:27;;;;;;;;;;;;;;;;;;5053774;28;19962;-73
2024/03/23 03:22:53;;;;;;;;;;;;;;;;;;5053505;28;19915;-73
2024/03/23 03:25:18;;;;;;;;;;;;;;;;;;5053248;28;19966;-74
2024/03/23 03:27:43;;;;;;;;;;;;;;;;;;5053563;28;19913;-74
2024/03/23 03:30:09;;;;;;;;;;;;;;;;;;5053215;28;19948;-77
2024/03/23 03:32:34;;;;;;;;;;;;;;;;;;5053750;28;19920;-73
2024/03/23 03:34:59;;;;;;;;;;;;;;;;;;5051812;28;20554;-74
2024/03/23 03:37:24;;;;;;;;;;;;;;;;;;5035117;28;20258;-74
2024/03/23 03:39:49;;;;;;;;;;;;;;;;;;5033736;28;20292;-75
2024/03/23 03:42:14;;;;;;;;;;;;;;;;;;5033255;28;19909;-75
2024/03/23 03:44:39;;;;;;;;;;;;;;;;;;5052382;28;19912;-75
2024/03/23 03:47:05;;;;;;;;;;;;;;;;;;5051347;28;19912;-74
2024/03/23 03:49:30;;;;;;;;;;;;;;;;;;5053032;28;19924;-75
2024/03/23 03:51:55;;;;;;;;;;;;;;;;;;5052891;28;20301;-75
2024/03/23 03:54:21;;;;;;;;;;;;;;;;;;5052923;28;19916;-75
2024/03/23 03:56:46;;;;;;;;;;;;;;;;;;5053072;28;19966;-75
2024/03/23 03:59:11;;;;;;;;;;;;;;;;;;5053242;28;19913;-75
2024/03/23 04:01:36;;;;;;;;;;;;;;;;;;5035254;28;19962;-74
2024/03/23 04:04:01;;;;;;;;;;;;;;;;;;5052657;28;19917;-74
2024/03/23 04:06:27;;;;;;;;;;;;;;;;;;5053250;28;19912;-74
2024/03/23 04:08:52;;;;;;;;;;;;;;;;;;5053079;28;20392;-75
2024/03/23 04:11:17;;;;;;;;;;;;;;;;;;5052916;28;20288;-75
2024/03/23 04:13:42;;;;;;;;;;;;;;;;;;5052851;28;20379;-75
2024/03/23 04:16:07;;;;;;;;;;;;;;;;;;5052705;28;19935;-75
2024/03/23 04:18:32;;;;;;;;;;;;;;;;;;5052806;28;20417;-75
2024/03/23 04:20:57;;;;;;;;;;;;;;;;;;5051516;28;20353;-75
2024/03/23 04:23:23;;;;;;;;;;;;;;;;;;5052393;28;20500;-75
2024/03/23 04:25:48;;;;;;;;;;;;;;;;;;5048880;28;20370;-74
2024/03/23 04:28:13;;;;;;;;;;;;;;;;;;5034352;28;19916;-75
2024/03/23 04:30:38;;;;;;;;;;;;;;;;;;5032480;28;19959;-75
2024/03/23 04:33:03;;;;;;;;;;;;;;;;;;5032496;28;20392;-74
2024/03/23 04:35:28;;;;;;;;;;;;;;;;;;5032605;28;19909;-75
2024/03/23 04:37:53;;;;;;;;;;;;;;;;;;5032403;28;20277;-75
2024/03/23 04:40:19;;;;;;;;;;;;;;;;;;5049318;28;19913;-72
2024/03/23 04:42:44;;;;;;;;;;;;;;;;;;5052352;28;19913;-71
2024/03/23 04:45:10;;;;;;;;;;;;;;;;;;5051898;28;19912;-71
2024/03/23 04:47:38;;;;;;;;;;;;;;;;;;5053212;28;20369;-72
2024/03/23 04:50:04;;;;;;;;;;;;;;;;;;5054040;28;20031;-72
2024/03/23 04:52:32;;;;;;;;;;;;;;;;;;5052080;28;20249;-71
2024/03/23 04:54:57;;;;;;;;;;;;;;;;;;5054104;28;19913;-73
2024/03/23 04:57:22;;;;;;;;;;;;;;;;;;5033431;28;19940;-72
2024/03/23 04:59:48;;;;;;;;;;;;;;;;;;5033321;28;19941;-72
2024/03/23 05:02:19;;;;;;;;;;;;;;;;;;5017358;28;20316;-72
2024/03/23 05:04:47;;;;;;;;;;;;;;;;;;5032209;28;19913;-71
2024/03/23 05:07:12;;;;;;;;;;;;;;;;;;5035006;28;19932;-73
2024/03/23 05:09:40;;;;;;;;;;;;;;;;;;5030824;28;20365;-72
2024/03/23 05:12:05;;;;;;;;;;;;;;;;;;5033114;28;19909;-74
2024/03/23 05:14:30;;;;;;;;;;;;;;;;;;5051601;28;19931;-74
2024/03/23 05:16:56;;;;;;;;;;;;;;;;;;5051486;28;19919;-74
2024/03/23 05:19:21;;;;;;;;;;;;;;;;;;5050142;28;19909;-74
2024/03/23 05:21:46;;;;;;;;;;;;;;;;;;5051696;28;19909;-75
2024/03/23 05:24:11;;;;;;;;;;;;;;;;;;5041264;28;19956;-74
2024/03/23 05:26:37;;;;;;;;;;;;;;;;;;5032045;28;19963;-75
2024/03/23 05:29:02;;;;;;;;;;;;;;;;;;5014872;28;19913;-74
2024/03/23 05:31:27;;;;;;;;;;;;;;;;;;5033561;28;20003;-74
2024/03/23 05:33:52;;;;;;;;;;;;;;;;;;5050592;28;20469;-74
2024/03/23 05:36:27;;;;;;;;;;;;;;;;;;5027944;28;19920;-74
2024/03/23 05:38:52;;;;;;;;;;;;;;;;;;5051299;28;20000;-73
2024/03/23 05:41:17;;;;;;;;;;;;;;;;;;5051130;28;20000;-74
2024/03/23 05:43:42;;;;;;;;;;;;;;;;;;5038226;28;19956;-75
2024/03/23 05:46:08;;;;;;;;;;;;;;;;;;5032879;28;19909;-75
2024/03/23 05:48:35;;;;;;;;;;;;;;;;;;5050411;28;19916;-75
2024/03/23 05:51:00;;;;;;;;;;;;;;;;;;5050141;28;19924;-75
2024/03/23 05:53:25;;;;;;;;;;;;;;;;;;5051190;28;19908;-75
2024/03/23 05:55:50;;;;;;;;;;;;;;;;;;5051118;28;19966;-76
2024/03/23 05:58:15;;;;;;;;;;;;;;;;;;5051056;28;20004;-76
2024/03/23 06:00:42;;;;;;;;;;;;;;;;;;5051251;28;19934;-75
2024/03/23 06:03:07;;;;;;;;;;;;;;;;;;5051166;28;20396;-75
2024/03/23 06:05:32;;;;;;;;;;;;;;;;;;5048610;28;20006;-75
2024/03/23 06:07:57;;;;;;;;;;;;;;;;;;5046647;28;19924;-74
2024/03/23 06:10:22;;;;;;;;;;;;;;;;;;5053921;28;20024;-71
2024/03/23 06:12:49;;;;;;;;;;;;;;;;;;5051200;28;19955;-72
2024/03/23 06:15:17;;;;;;;;;;;;;;;;;;5035232;28;19916;-70
2024/03/23 06:17:42;;;;;;;;;;;;;;;;;;5034855;28;19917;-72
2024/03/23 06:20:07;;;;;;;;;;;;;;;;;;5036216;28;19913;-72
2024/03/23 06:22:33;;;;;;;;;;;;;;;;;;5054657;28;19908;-72
2024/03/23 06:24:58;;;;;;;;;;;;;;;;;;5054208;28;19913;-73
2024/03/23 06:27:23;;;;;;;;;;;;;;;;;;5054560;28;19913;-73
2024/03/23 06:29:48;;;;;;;;;;;;;;;;;;5054472;28;19935;-73
2024/03/23 06:32:14;;;;;;;;;;;;;;;;;;5051411;28;19909;-73
2024/03/23 06:34:39;;;;;;;;;;;;;;;;;;5047121;28;20008;-73
2024/03/23 06:37:04;;;;;;;;;;;;;;;;;;5035694;28;19910;-73
2024/03/23 06:39:29;;;;;;;;;;;;;;;;;;5054532;28;20326;-71
2024/03/23 06:41:54;;;;;;;;;;;;;;;;;;5054336;28;19916;-71
2024/03/23 06:44:20;;;;;;;;;;;;;;;;;;5036255;28;20278;-72
2024/03/23 06:46:45;;;;;;;;;;;;;;;;;;5052590;28;19963;-72
2024/03/23 06:49:10;;;;;;;;;;;;;;;;;;5054023;28;19943;-72
2024/03/23 06:51:35;;;;;;;;;;;;;;;;;;5053029;28;19992;-72
2024/03/23 06:54:00;;;;;;;;;;;;;;;;;;5051921;28;20320;-72
2024/03/23 06:56:25;;;;;;;;;;;;;;;;;;5054089;28;19919;-72
2024/03/23 06:58:51;;;;;;;;;;;;;;;;;;5053795;28;19916;-74
2024/03/23 07:01:16;;;;;;;;;;;;;;;;;;5054268;28;19917;-72
2024/03/23 07:03:41;;;;;;;;;;;;;;;;;;5035729;28;19919;-74
2024/03/23 07:06:06;;;;;;;;;;;;;;;;;;5052766;28;19909;-73
2024/03/23 07:08:31;;;;;;;;;;;;;;;;;;5052354;28;19917;-73
2024/03/23 07:10:56;;;;;;;;;;;;;;;;;;5052521;28;19917;-73
2024/03/23 07:13:22;;;;;;;;;;;;;;;;;;5043940;28;19909;-74
2024/03/23 07:15:47;;;;;;;;;;;;;;;;;;5053580;28;19913;-74
2024/03/23 07:18:12;;;;;;;;;;;;;;;;;;5053821;28;20335;-73
2024/03/23 07:20:37;;;;;;;;;;;;;;;;;;5038223;28;20296;-73
2024/03/23 07:23:02;;;;;;;;;;;;;;;;;;5034450;28;19932;-71
2024/03/23 07:25:29;;;;;;;;;;;;;;;;;;5053750;28;19974;-73
2024/03/23 07:27:54;;;;;;;;;;;;;;;;;;5049710;28;20567;-73
2024/03/23 07:30:19;;;;;;;;;;;;;;;;;;5053469;28;20003;-73
2024/03/23 07:32:44;;;;;;;;;;;;;;;;;;5053266;28;19909;-74
2024/03/23 07:35:09;;;;;;;;;;;;;;;;;;5053486;28;19948;-72
2024/03/23 07:37:34;;;;;;;;;;;;;;;;;;5053344;28;20387;-74
2024/03/23 07:39:59;;;;;;;;;;;;;;;;;;5053200;28;19916;-74
2024/03/23 07:42:26;;;;;;;;;;;;;;;;;;5053274;28;19925;-74
2024/03/23 07:44:51;;;;;;;;;;;;;;;;;;5053222;28;19919;-74
2024/03/23 07:47:16;;;;;;;;;;;;;;;;;;5049923;28;19912;-73
2024/03/23 07:49:41;;;;;;;;;;;;;;;;;;5052826;28;20349;-74
2024/03/23 07:52:08;;;;;;;;;;;;;;;;;;5053268;28;19974;-73
2024/03/23 07:54:33;;;;;;;;;;;;;;;;;;5053086;28;19912;-73
2024/03/23 07:56:58;;;;;;;;;;;;;;;;;;5051756;28;19913;-74
2024/03/23 07:59:23;;;;;;;;;;;;;;;;;;5033327;28;19910;-71
2024/03/23 08:01:48;;;;;;;;;;;;;;;;;;5041949;28;20360;-71
2024/03/23 08:04:13;;;;;;;;;;;;;;;;;;5052526;28;19912;-71
2024/03/23 08:06:39;;;;;;;;;;;;;;;;;;5052701;28;19913;-71
2024/03/23 08:09:04;;;;;;;;;;;;;;;;;;5052562;28;19913;-70
2024/03/23 08:11:29;;;;;;;;;;;;;;;;;;5053190;28;19913;-74
2024/03/23 08:13:54;;;;;;;;;;;;;;;;;;5040234;28;19920;-74
2024/03/23 08:16:19;;;;;;;;;;;;;;;;;;5032749;28;19996;-73
2024/03/23 08:18:44;;;;;;;;;;;;;;;;;;5034655;28;19909;-73
2024/03/23 08:21:09;;;;;;;;;;;;;;;;;;5048713;28;19940;-73
2024/03/23 08:23:38;;;;;;;;;;;;;;;;;;5038670;28;19928;-73
2024/03/23 08:26:03;;;;;;;;;;;;;;;;;;5037647;28;19913;-73
2024/03/23 08:28:28;;;;;;;;;;;;;;;;;;5039743;28;19927;-74
2024/03/23 08:30:53;;;;;;;;;;;;;;;;;;5030396;28;19980;-74
2024/03/23 08:33:18;;;;;;;;;;;;;;;;;;5046107;28;20000;-74
2024/03/23 08:35:43;;;;;;;;;;;;;;;;;;5037243;28;19916;-74
2024/03/23 08:38:09;;;;;;;;;;;;;;;;;;5049944;28;19991;-74
2024/03/23 08:40:34;;;;;;;;;;;;;;;;;;5038588;28;20392;-75
2024/03/23 08:42:59;;;;;;;;;;;;;;;;;;5032898;28;19936;-75
2024/03/23 08:45:24;;;;;;;;;;;;;;;;;;5031340;28;19923;-75
2024/03/23 08:47:49;;;;;;;;;;;;;;;;;;5049865;28;20071;-75
2024/03/23 08:50:15;;;;;;;;;;;;;;;;;;5022051;28;19940;-76
2024/03/23 08:52:40;;;;;;;;;;;;;;;;;;5021598;28;20365;-75
2024/03/23 08:55:05;;;;;;;;;;;;;;;;;;5013503;28;19984;-74
2024/03/23 08:57:30;;;;;;;;;;;;;;;;;;5015018;28;19921;-75
2024/03/23 08:59:55;;;;;;;;;;;;;;;;;;5010409;28;19917;-75
2024/03/23 09:02:20;;;;;;;;;;;;;;;;;;5012328;28;20305;-75
2024/03/23 09:04:45;;;;;;;;;;;;;;;;;;5024116;28;19947;-74
2024/03/23 09:07:10;;;;;;;;;;;;;;;;;;5026063;28;20436;-74
2024/03/23 09:09:36;;;;;;;;;;;;;;;;;;5010869;28;20429;-74
2024/03/23 09:12:01;;;;;;;;;;;;;;;;;;5026853;28;19914;-73
2024/03/23 09:14:26;;;;;;;;;;;;;;;;;;5032280;28;20273;-74
2024/03/23 09:16:51;;;;;;;;;;;;;;;;;;5021263;28;19910;-75
2024/03/23 09:19:20;;;;;;;;;;;;;;;;;;5025514;28;20342;-74
2024/03/23 09:21:45;;;;;;;;;;;;;;;;;;5018771;28;19963;-74
2024/03/23 09:24:10;;;;;;;;;;;;;;;;;;5020237;28;20309;-74
2024/03/23 09:26:35;;;;;;;;;;;;;;;;;;5022562;28;20704;-74
2024/03/23 09:29:00;;;;;;;;;;;;;;;;;;5015835;28;19920;-74
2024/03/23 09:31:25;;;;;;;;;;;;;;;;;;5023074;28;19917;-76
2024/03/23 09:33:50;;;;;;;;;;;;;;;;;;5009868;28;19914;-76
2024/03/23 09:36:16;;;;;;;;;;;;;;;;;;5009426;28;19917;-77
2024/03/23 09:38:41;;;;;;;;;;;;;;;;;;5021913;28;19913;-78
2024/03/23 09:41:06;;;;;;;;;;;;;;;;;;5012828;28;20004;-78
2024/03/23 09:43:31;;;;;;;;;;;;;;;;;;5027228;28;20721;-78
2024/03/23 09:45:56;;;;;;;;;;;;;;;;;;5025897;28;20532;-79
2024/03/23 09:48:21;;;;;;;;;;;;;;;;;;5022400;28;19983;-79
2024/03/23 09:50:48;;;;;;;;;;;;;;;;;;5019437;28;19953;-78
2024/03/23 09:53:13;;;;;;;;;;;;;;;;;;5028871;28;19916;-77
2024/03/23 09:55:39;;;;;;;;;;;;;;;;;;5031569;28;19921;-76
2024/03/23 09:58:04;;;;;;;;;;;;;;;;;;5014146;28;19952;-78
2024/03/23 10:00:30;;;;;;;;;;;;;;;;;;5021716;28;19913;-80
2024/03/23 10:02:55;;;;;;;;;;;;;;;;;;5015176;28;19937;-77
2024/03/23 10:05:21;;;;;;;;;;;;;;;;;;5029031;28;20399;-75
2024/03/23 10:07:46;;;;;;;;;;;;;;;;;;5017355;28;19924;-74
2024/03/23 10:10:12;;;;;;;;;;;;;;;;;;5024155;28;19913;-74
2024/03/23 10:12:37;;;;;;;;;;;;;;;;;;5022803;28;19921;-75
2024/03/23 10:15:02;;;;;;;;;;;;;;;;;;5016722;28;19964;-75
2024/03/23 10:17:27;;;;;;;;;;;;;;;;;;5031235;28;19917;-76
2024/03/23 10:19:52;;;;;;;;;;;;;;;;;;5031988;28;19913;-76
2024/03/23 10:22:17;;;;;;;;;;;;;;;;;;5017493;28;20386;-76
2024/03/23 10:24:42;;;;;;;;;;;;;;;;;;5014669;28;20271;-76
2024/03/23 10:27:08;;;;;;;;;;;;;;;;;;5012463;28;19995;-76
2024/03/23 10:29:33;;;;;;;;;;;;;;;;;;5028445;28;20397;-76
2024/03/23 10:31:58;;;;;;;;;;;;;;;;;;5022431;28;19920;-76
2024/03/23 10:34:23;;;;;;;;;;;;;;;;;;5022382;28;20596;-76
2024/03/23 10:36:48;;;;;;;;;;;;;;;;;;5018702;28;20542;-76
2024/03/23 10:39:14;;;;;;;;;;;;;;;;;;5028198;28;20440;-78
2024/03/23 10:41:42;;;;;;;;;;;;;;;;;;5016156;28;20378;-78
2024/03/23 10:44:07;;;;;;;;;;;;;;;;;;5023348;28;19928;-78
2024/03/23 10:46:32;;;;;;;;;;;;;;;;;;5023475;28;20008;-78
2024/03/23 10:48:57;;;;;;;;;;;;;;;;;;5031502;28;20030;-77
2024/03/23 10:51:22;;;;;;;;;;;;;;;;;;5021481;28;19921;-77
2024/03/23 10:53:47;;;;;;;;;;;;;;;;;;5026794;28;19913;-76
2024/03/23 10:56:12;;;;;;;;;;;;;;;;;;5029988;28;20006;-78
2024/03/23 10:58:38;;;;;;;;;;;;;;;;;;5031106;28;19913;-78
2024/03/23 11:01:03;;;;;;;;;;;;;;;;;;5015801;28;19918;-78
2024/03/23 11:03:28;;;;;;;;;;;;;;;;;;5028300;28;19909;-78
2024/03/23 11:05:53;;;;;;;;;;;;;;;;;;5023765;28;20389;-77
2024/03/23 11:08:18;;;;;;;;;;;;;;;;;;5022133;28;20270;-77
2024/03/23 11:10:44;;;;;;;;;;;;;;;;;;5023031;28;19913;-78
2024/03/23 11:13:09;;;;;;;;;;;;;;;;;;5026589;28;19956;-77
2024/03/23 11:15:34;;;;;;;;;;;;;;;;;;5013629;28;19948;-77
2024/03/23 11:17:59;;;;;;;;;;;;;;;;;;5011424;28;20305;-81
2024/03/23 11:20:24;;;;;;;;;;;;;;;;;;5019802;28;20326;-77
2024/03/23 11:22:52;;;;;;;;;;;;;;;;;;5017182;28;20005;-77
2024/03/23 11:25:17;;;;;;;;;;;;;;;;;;5027060;28;19943;-78
2024/03/23 11:27:43;;;;;;;;;;;;;;;;;;5021312;28;19913;-79
2024/03/23 11:30:08;;;;;;;;;;;;;;;;;;5019283;28;19952;-79
2024/03/23 11:32:33;;;;;;;;;;;;;;;;;;5019418;28;19920;-78
2024/03/23 11:34:58;;;;;;;;;;;;;;;;;;5024354;28;19913;-79
2024/03/23 11:37:23;;;;;;;;;;;;;;;;;;5014277;28;19964;-78
2024/03/23 11:39:49;;;;;;;;;;;;;;;;;;5030060;28;20388;-79
2024/03/23 11:42:15;;;;;;;;;;;;;;;;;;5021963;28;19910;-70
2024/03/23 11:44:40;;;;;;;;;;;;;;;;;;5017166;28;19925;-71
2024/03/23 11:47:05;;;;;;;;;;;;;;;;;;5026578;28;19909;-71
2024/03/23 11:49:30;;;;;;;;;;;;;;;;;;5023403;28;19955;-71
2024/03/23 11:51:55;;;;;;;;;;;;;;;;;;5036175;28;19932;-71
2024/03/23 11:54:20;;;;;;;;;;;;;;;;;;5040391;28;19920;-70
2024/03/23 11:56:46;;;;;;;;;;;;;;;;;;5042930;28;20350;-71
2024/03/23 11:59:11;;;;;;;;;;;;;;;;;;5049800;28;19920;-71
2024/03/23 12:01:36;;;;;;;;;;;;;;;;;;5040129;28;19917;-71
2024/03/23 12:04:02;;;;;;;;;;;;;;;;;;5033714;28;19925;-71
2024/03/23 12:06:27;;;;;;;;;;;;;;;;;;5029545;28;19917;-71
2024/03/23 12:08:52;;;;;;;;;;;;;;;;;;5043398;28;19913;-71
2024/03/23 12:11:17;;;;;;;;;;;;;;;;;;5031897;28;20245;-71
2024/03/23 12:13:46;;;;;;;;;;;;;;;;;;5035145;28;19917;-71
2024/03/23 12:16:11;;;;;;;;;;;;;;;;;;5038135;28;19913;-72
2024/03/23 12:18:36;;;;;;;;;;;;;;;;;;5049344;28;19919;-72
2024/03/23 12:21:02;;;;;;;;;;;;;;;;;;5033594;28;19967;-71
2024/03/23 12:23:30;;;;;;;;;;;;;;;;;;5041129;28;19913;-72
2024/03/23 12:25:55;;;;;;;;;;;;;;;;;;5035682;28;19912;-72
2024/03/23 12:28:20;;;;;;;;;;;;;;;;;;5039791;28;19920;-72
2024/03/23 12:30:45;;;;;;;;;;;;;;;;;;5042682;28;19991;-72
2024/03/23 12:33:11;;;;;;;;;;;;;;;;;;5049471;28;20667;-71
2024/03/23 12:35:36;;;;;;;;;;;;;;;;;;5049298;28;19912;-71
2024/03/23 12:38:01;;;;;;;;;;;;;;;;;;5042294;28;19936;-71
2024/03/23 12:40:29;;;;;;;;;;;;;;;;;;5039574;28;19916;-71
2024/03/23 12:42:54;;;;;;;;;;;;;;;;;;5034851;28;19928;-70
2024/03/23 12:45:19;;;;;;;;;;;;;;;;;;5032329;28;20020;-70
2024/03/23 12:47:44;;;;;;;;;;;;;;;;;;5044769;28;19991;-71
2024/03/23 12:50:09;;;;;;;;;;;;;;;;;;5029040;28;19979;-71
2024/03/23 12:52:35;;;;;;;;;;;;;;;;;;5029325;28;19913;-73
2024/03/23 12:55:00;;;;;;;;;;;;;;;;;;5014185;28;19913;-73
2024/03/23 12:57:25;;;;;;;;;;;;;;;;;;5027577;28;19967;-73
2024/03/23 12:59:51;;;;;;;;;;;;;;;;;;5023464;28;19921;-74
2024/03/23 13:02:16;;;;;;;;;;;;;;;;;;5016801;28;20125;-74
2024/03/23 13:04:41;;;;;;;;;;;;;;;;;;5024065;28;19924;-73
2024/03/23 13:07:07;;;;;;;;;;;;;;;;;;5015814;28;20021;-73
2024/03/23 13:09:32;;;;;;;;;;;;;;;;;;5026968;28;20012;-73
2024/03/23 13:11:57;;;;;;;;;;;;;;;;;;5008967;28;20705;-73
2024/03/23 13:14:23;;;;;;;;;;;;;;;;;;5016167;28;19960;-75
2024/03/23 13:16:48;;;;;;;;;;;;;;;;;;5022076;28;20370;-73
2024/03/23 13:19:13;;;;;;;;;;;;;;;;;;5022539;28;19932;-73
2024/03/23 13:21:38;;;;;;;;;;;;;;;;;;5012526;28;19948;-73
2024/03/23 13:24:03;;;;;;;;;;;;;;;;;;5021894;28;19918;-74
2024/03/23 13:26:28;;;;;;;;;;;;;;;;;;5011195;28;19914;-73
2024/03/23 13:28:53;;;;;;;;;;;;;;;;;;5023172;28;20285;-74
2024/03/23 13:31:19;;;;;;;;;;;;;;;;;;5024480;28;20381;-74
2024/03/23 13:33:44;;;;;;;;;;;;;;;;;;5023966;28;20349;-74
2024/03/23 13:36:09;;;;;;;;;;;;;;;;;;5017199;28;20285;-74
2024/03/23 13:38:34;;;;;;;;;;;;;;;;;;5017391;28;19918;-75
2024/03/23 13:41:00;;;;;;;;;;;;;;;;;;5023864;28;19917;-74
2024/03/23 13:43:28;;;;;;;;;;;;;;;;;;5019165;28;19913;-74
2024/03/23 13:45:53;;;;;;;;;;;;;;;;;;5014766;28;20633;-74
2024/03/23 13:48:18;;;;;;;;;;;;;;;;;;5020324;28;19917;-74
2024/03/23 13:50:43;;;;;;;;;;;;;;;;;;5035611;28;20552;-73
2024/03/23 13:53:08;;;;;;;;;;;;;;;;;;5044380;28;20396;-73
2024/03/23 13:55:34;;;;;;;;;;;;;;;;;;5047144;28;19913;-75
2024/03/23 13:57:59;;;;;;;;;;;;;;;;;;5030027;28;19955;-74
2024/03/23 14:00:24;;;;;;;;;;;;;;;;;;5042376;28;19924;-74
2024/03/23 14:02:50;;;;;;;;;;;;;;;;;;5035963;28;19913;-74
2024/03/23 14:05:15;;;;;;;;;;;;;;;;;;5033520;28;20650;-74
2024/03/23 14:07:40;;;;;;;;;;;;;;;;;;5037678;28;20296;-74
2024/03/23 14:10:13;;;;;;;;;;;;;;;;;;5040192;28;19917;-74
2024/03/23 14:12:38;;;;;;;;;;;;;;;;;;5039921;28;19919;-75
2024/03/23 14:15:03;;;;;;;;;;;;;;;;;;5032174;28;20016;-73
2024/03/23 14:17:28;;;;;;;;;;;;;;;;;;5046789;28;20024;-74
2024/03/23 14:19:53;;;;;;;;;;;;;;;;;;5041811;28;19913;-74
2024/03/23 14:22:21;;;;;;;;;;;;;;;;;;5036427;28;19919;-73
2024/03/23 14:24:46;;;;;;;;;;;;;;;;;;5034572;28;19917;-74
2024/03/23 14:27:11;;;;;;;;;;;;;;;;;;5044688;28;19919;-74
2024/03/23 14:29:36;;;;;;;;;;;;;;;;;;5027800;28;19946;-74
2024/03/23 14:32:02;;;;;;;;;;;;;;;;;;5038523;28;19920;-74
2024/03/23 14:34:30;;;;;;;;;;;;;;;;;;5051392;28;19917;-74
2024/03/23 14:36:55;;;;;;;;;;;;;;;;;;5036857;28;19913;-74
2024/03/23 14:39:20;;;;;;;;;;;;;;;;;;5047864;28;19927;-74
2024/03/23 14:41:45;;;;;;;;;;;;;;;;;;5035874;28;19919;-73
2024/03/23 14:44:10;;;;;;;;;;;;;;;;;;5046033;28;19994;-74
2024/03/23 14:46:36;;;;;;;;;;;;;;;;;;5039456;28;20270;-74
2024/03/23 14:49:01;;;;;;;;;;;;;;;;;;5046061;28;19931;-74
2024/03/23 14:51:27;;;;;;;;;;;;;;;;;;5049080;28;19956;-74
2024/03/23 14:53:52;;;;;;;;;;;;;;;;;;5044450;28;20284;-74
2024/03/23 14:56:18;;;;;;;;;;;;;;;;;;5040090;28;19920;-74
2024/03/23 14:58:45;;;;;;;;;;;;;;;;;;5038055;28;19922;-74
2024/03/23 15:01:10;;;;;;;;;;;;;;;;;;5046272;28;20011;-75
2024/03/23 15:03:36;;;;;;;;;;;;;;;;;;5013001;28;20004;-74
2024/03/23 15:06:02;;;;;;;;;;;;;;;;;;5035257;28;19912;-75
2024/03/23 15:08:30;;;;;;;;;;;;;;;;;;5037784;28;19920;-74
2024/03/23 15:10:57;;;;;;;;;;;;;;;;;;5030857;28;20508;-71
2024/03/23 15:13:25;;;;;;;;;;;;;;;;;;5036627;28;20055;-70
2024/03/23 15:15:52;;;;;;;;;;;;;;;;;;5034252;28;19928;-69
2024/03/23 15:18:25;;;;;;;;;;;;;;;;;;5039810;28;19963;-70
2024/03/23 15:20:50;;;;;;;;;;;;;;;;;;5048259;28;20377;-69
2024/03/23 15:23:15;;;;;;;;;;;;;;;;;;5034905;28;19909;-73
2024/03/23 15:25:41;;;;;;;;;;;;;;;;;;5044787;28;20428;-74
2024/03/23 15:28:06;;;;;;;;;;;;;;;;;;5039254;28;20403;-72
2024/03/23 15:30:31;;;;;;;;;;;;;;;;;;5027969;28;20577;-73
2024/03/23 15:32:56;;;;;;;;;;;;;;;;;;5044635;28;19966;-74
2024/03/23 15:35:23;;;;;;;;;;;;;;;;;;5033772;28;19935;-74
2024/03/23 15:37:48;;;;;;;;;;;;;;;;;;5045004;28;19913;-74
2024/03/23 15:40:13;;;;;;;;;;;;;;;;;;5038861;28;19947;-74
2024/03/23 15:42:38;;;;;;;;;;;;;;;;;;5048992;28;19913;-74
2024/03/23 15:45:04;;;;;;;;;;;;;;;;;;5049920;28;19986;-74
2024/03/23 15:47:29;;;;;;;;;;;;;;;;;;5047502;28;20316;-74
2024/03/23 15:49:55;;;;;;;;;;;;;;;;;;5041603;28;20300;-73
2024/03/23 15:52:20;;;;;;;;;;;;;;;;;;5039683;28;19959;-73
2024/03/23 15:54:45;;;;;;;;;;;;;;;;;;5036822;28;19964;-73
2024/03/23 15:57:11;;;;;;;;;;;;;;;;;;5046700;28;20404;-74
2024/03/23 15:59:36;;;;;;;;;;;;;;;;;;5050057;28;20364;-73
2024/03/23 16:02:02;;;;;;;;;;;;;;;;;;5049910;28;19913;-73
2024/03/23 16:04:27;;;;;;;;;;;;;;;;;;5039192;28;19921;-74
2024/03/23 16:06:52;;;;;;;;;;;;;;;;;;5030445;28;19924;-73
2024/03/23 16:09:18;;;;;;;;;;;;;;;;;;5046660;28;20294;-73
2024/03/23 16:11:43;;;;;;;;;;;;;;;;;;5034447;28;19920;-74
2024/03/23 16:14:09;;;;;;;;;;;;;;;;;;5041942;28;19913;-73
2024/03/23 16:16:34;;;;;;;;;;;;;;;;;;5043801;28;20365;-74
2024/03/23 16:18:59;;;;;;;;;;;;;;;;;;5050177;28;19995;-75
2024/03/23 16:21:24;;;;;;;;;;;;;;;;;;5031494;28;19917;-78
2024/03/23 16:23:49;;;;;;;;;;;;;;;;;;5034881;28;19932;-77
2024/03/23 16:26:16;;;;;;;;;;;;;;;;;;5022638;28;20024;-77
2024/03/23 16:28:42;;;;;;;;;;;;;;;;;;5041143;28;20356;-79
2024/03/23 16:31:07;;;;;;;;;;;;;;;;;;5033197;28;20011;-79
2024/03/23 16:33:32;;;;;;;;;;;;;;;;;;5030453;28;19939;-78